Data for 08/27/2013

Time Sea-Level Adjusted Pressure Absolute Pressure Temperature Relative Humidity Dew Point   
(mb) (inHg) (mb) (inHg) (C) (F) (%) (C) (F)
00:05 1020 30.12 849 25.07 17 62.6 59 9.1 48.4
00:10 1020 30.12 849 25.07 17 62.5 58 8.7 47.7
00:15 1020 30.12 849 25.07 16.7 62.1 56 8 46.4
00:20 1020 30.12 849 25.07 16.6 62 58 8.4 47.2
00:25 1020 30.12 849 25.07 16.4 61.4 58 8.1 46.6
00:30 1020 30.12 849 25.07 16.5 61.8 59 8.7 47.6
00:35 1020 30.12 849 25.07 16.5 61.8 57 8.1 46.6
00:40 1020 30.12 849 25.07 16.6 61.8 56 7.9 46.3
00:45 1020 30.12 849 25.07 16.5 61.8 56 7.8 46.1
00:50 1020 30.12 849 25.07 16.6 61.9 56 7.8 46
00:55 1020 30.12 849 25.07 16.5 61.7 56 7.7 45.9
01:00 1020 30.12 849 25.07 16.5 61.7 56 7.7 45.8
01:05 1020 30.12 849 25.07 16.6 61.9 55 7.5 45.5
01:10 1020 30.12 849 25.07 16.8 62.2 53 7.2 45
01:15 1020 30.12 849 25.07 17.2 63 56 8.4 47
01:20 1020 30.12 849 25.07 17.3 63.2 53 7.7 45.8
01:25 1020 30.12 849 25.07 17.1 62.8 53 7.5 45.5
01:30 1020 30.12 849 25.07 16.8 62.2 54 7.5 45.4
01:35 1020 30.12 849 25.07 16.7 62 54 7.4 45.4
01:40 1020 30.12 850 25.1 16.6 61.9 56 7.9 46.3
01:45 1020 30.12 850 25.1 16.5 61.7 57 8 46.4
01:50 1020 30.12 850 25.1 16.3 61.4 57 7.9 46.1
01:55 1020 30.12 850 25.1 16.2 61.1 58 7.9 46.3
02:00 1020 30.12 850 25.1 16 60.7 57 7.5 45.6
02:05 1020 30.12 850 25.1 15.8 60.5 59 7.8 46.1
02:10 1020 30.12 850 25.1 15.5 59.9 59 7.7 45.8
02:15 1020 30.12 850 25.1 15.4 59.7 60 7.7 45.8
02:20 1020 30.12 850 25.1 15.4 59.6 60 7.7 45.8
02:25 1020 30.12 850 25.1 15.3 59.6 61 8 46.3
02:30 1020 30.12 850 25.1 15.3 59.6 61 7.9 46.2
02:35 1021 30.15 850 25.1 15.4 59.8 62 8.3 46.9
02:40 1021 30.15 850 25.1 15.3 59.5 63 8.3 47
02:45 1021 30.15 850 25.1 14.7 58.5 64 8.1 46.6
02:50 1021 30.15 850 25.1 14.4 58 64 7.8 46
02:55 1021 30.15 850 25.1 14.3 57.7 66 8.2 46.7
03:00 1021 30.15 850 25.1 14 57.3 67 8 46.3
03:05 1021 30.15 850 25.1 14.2 57.5 66 8 46.4
03:10 1021 30.15 850 25.1 14.4 57.9 63 7.6 45.6
03:15 1021 30.15 850 25.1 14.7 58.5 64 8.2 46.7
03:20 1021 30.15 850 25.1 14.2 57.5 66 7.9 46.2
03:25 1021 30.15 850 25.1 14 57.3 66 7.8 46
03:30 1021 30.15 850 25.1 14.1 57.3 67 8 46.3
03:35 1021 30.15 850 25.1 14 57.2 66 7.8 46
03:40 1021 30.15 850 25.1 14.1 57.4 65 7.7 45.8
03:45 1021 30.15 850 25.1 14.1 57.4 67 8.2 46.8
03:50 1021 30.15 850 25.1 13.6 56.5 64 7.1 44.7
03:55 1021 30.15 850 25.1 14.4 57.9 62 7.3 45.2
04:00 1021 30.15 850 25.1 14.5 58 62 7.4 45.3
04:05 1021 30.15 850 25.1 14.5 58.1 62 7.4 45.3
04:10 1021 30.15 850 25.1 14.4 58 63 7.6 45.6
04:15 1021 30.15 850 25.1 14.3 57.7 63 7.4 45.3
04:20 1021 30.15 850 25.1 14.5 58.1 62 7.5 45.5
04:25 1021 30.15 850 25.1 14.2 57.6 64 7.6 45.6
04:30 1021 30.15 850 25.1 14.1 57.4 63 7.1 44.9
04:35 1021 30.15 850 25.1 14.5 58.2 60 7 44.5
04:40 1021 30.15 850 25.1 15 58.9 59 7.1 44.9
04:45 1021 30.15 850 25.1 15.1 59.1 60 7.4 45.4
04:50 1021 30.15 850 25.1 14.8 58.7 61 7.5 45.4
04:55 1021 30.15 850 25.1 14.6 58.3 62 7.6 45.6
05:00 1021 30.15 850 25.1 14.4 58 62 7.3 45.2
05:05 1021 30.15 850 25.1 14.6 58.3 61 7.3 45.2
05:10 1021 30.15 850 25.1 14.6 58.3 61 7.3 45.2
05:15 1021 30.15 850 25.1 14.4 57.9 62 7.3 45.2
05:20 1021 30.15 850 25.1 14.2 57.6 63 7.3 45.2
05:25 1021 30.15 850 25.1 14.3 57.8 62 7.2 45
05:30 1021 30.15 850 25.1 14.5 58.1 62 7.3 45.2
05:35 1021 30.15 851 25.13 14.6 58.2 61 7.3 45.1
05:40 1021 30.15 850 25.1 14.8 58.6 59 7 44.5
05:45 1021 30.15 850 25.1 14.9 58.7 59 7 44.7
05:50 1021 30.15 850 25.1 14.9 58.8 59 6.9 44.5
05:55 1021 30.15 850 25.1 15.1 59.2 57 6.6 43.9
06:00 1021 30.15 850 25.1 15.5 59.8 57 7 44.5
06:05 1021 30.15 850 25.1 15.5 59.9 57 7.2 44.9
06:10 1021 30.15 851 25.13 15.2 59.4 57 6.9 44.4
06:15 1021 30.15 851 25.13 15.1 59.2 59 7.3 45.1
06:20 1021 30.15 851 25.13 14.9 58.8 58 6.9 44.4
06:25 1021 30.15 851 25.13 15 59 60 7.3 45.1
06:30 1022 30.18 851 25.13 14.6 58.4 61 7.3 45.1
06:35 1022 30.18 851 25.13 14.4 58 62 7.3 45.1
06:40 1022 30.18 851 25.13 14.4 57.9 60 6.8 44.3
06:45 1022 30.18 851 25.13 14.8 58.6 58 6.6 43.9
06:50 1022 30.18 851 25.13 15.3 59.6 57 6.9 44.3
06:55 1021 30.15 851 25.13 15.8 60.5 56 7.1 44.8
07:00 1021 30.15 851 25.13 15.9 60.6 56 7.2 45
07:05 1021 30.15 851 25.13 16.1 61 56 7.3 45.1
07:10 1021 30.15 851 25.13 16.2 61.1 56 7.6 45.7
07:15 1021 30.15 851 25.13 16.3 61.3 56 7.5 45.4
07:20 1021 30.15 851 25.13 16.5 61.7 56 7.7 45.8
07:25 1021 30.15 851 25.13 17 62.5 54 7.7 45.9
07:30 1021 30.15 851 25.13 17.4 63.3 53 7.9 46.1
07:35 1022 30.18 851 25.13 18 64.3 52 8.1 46.5
07:40 1022 30.18 851 25.13 18.5 65.2 51 8.3 47
07:45 1022 30.18 851 25.13 18.8 65.8 54 9.3 48.8
07:50 1022 30.18 851 25.13 19 66.1 50 8.5 47.3
07:55 1022 30.18 851 25.13 19.4 67 49 8.7 47.6
08:00 1022 30.18 851 25.13 19.9 67.9 48 8.6 47.5
08:05 1022 30.18 851 25.13 20.7 69.2 44 8.3 46.9
08:10 1022 30.18 851 25.13 20.7 69.3 44 8.2 46.8
08:15 1022 30.18 851 25.13 20.6 69.1 45 8.3 47
08:20 1022 30.18 851 25.13 21 69.8 42 7.9 46.2
08:25 1022 30.18 851 25.13 21.5 70.8 43 8.7 47.6
08:30 1022 30.18 851 25.13 21.6 70.8 44 9 48.1
08:35 1022 30.18 851 25.13 21.2 70.1 45 8.8 47.8
08:40 1022 30.18 851 25.13 21.5 70.6 44 8.8 47.8
08:45 1022 30.18 851 25.13 21.8 71.2 41 8.3 46.9
08:50 1022 30.18 851 25.13 21.9 71.5 41 8.3 46.9
08:55 1022 30.18 851 25.13 22.7 72.8 39 8.2 46.7
09:00 1022 30.18 851 25.13 23.2 73.8 38 8.3 46.9
09:05 1021 30.15 851 25.13 23.1 73.5 38 8.2 46.8
09:10 1021 30.15 851 25.13 22.5 72.6 39 8 46.5
09:15 1021 30.15 851 25.13 22.4 72.3 39 7.8 46
09:20 1021 30.15 851 25.13 23.3 74 37 7.8 46.1
09:25 1022 30.18 851 25.13 24.2 75.6 36 8.3 46.9
09:30 1021 30.15 851 25.13 24.7 76.5 34 7.9 46.2
09:35 1021 30.15 851 25.13 24.9 76.8 34 8.2 46.8
09:40 1021 30.15 851 25.13 24.9 76.8 35 8.5 47.3
09:45 1021 30.15 850 25.1 24.9 76.7 33 7.8 46
09:50 1021 30.15 850 25.1 24.6 76.2 35 8.1 46.7
09:55 1021 30.15 850 25.1 24.4 75.9 33 7.3 45.1
10:00 1021 30.15 850 25.1 24.8 76.6 33 7.6 45.7
10:05 1021 30.15 850 25.1 25.1 77.2 33 7.8 46.1
10:10 1021 30.15 850 25.1 25.7 78.2 31 7.7 45.8
10:15 1021 30.15 850 25.1 25.8 78.5 32 8 46.3
10:20 1021 30.15 850 25.1 26.3 79.3 31 8.2 46.7
10:25 1021 30.15 850 25.1 25.8 78.4 33 8.4 47.2
10:30 1021 30.15 850 25.1 25.8 78.5 30 7.1 44.8
10:35 1021 30.15 850 25.1 26.5 79.6 29 7.3 45.2
10:40 1021 30.15 850 25.1 27.7 81.9 28 7.6 45.7
10:45 1021 30.15 850 25.1 26.9 80.4 27 6.4 43.5
10:50 1021 30.15 850 25.1 27.7 81.9 25 6.1 43
10:55 1021 30.15 850 25.1 28.1 82.7 25 6.6 43.8
11:00 1021 30.15 850 25.1 27.8 82 24 5.7 42.2
11:05 1020 30.12 850 25.1 28.3 82.9 24 6 42.8
11:10 1020 30.12 850 25.1 28.1 82.5 25 6.4 43.5
11:15 1020 30.12 850 25.1 28.4 83.2 24 6.3 43.3
11:20 1020 30.12 849 25.07 28.7 83.6 23 6 42.8
11:25 1020 30.12 849 25.07 29.1 84.5 22 5.4 41.8
11:30 1020 30.12 849 25.07 29.2 84.6 22 5.4 41.8
11:35 1020 30.12 849 25.07 28.9 84 23 5.8 42.5
11:40 1020 30.12 849 25.07 29.2 84.6 18 3.2 37.7
11:45 1020 30.12 849 25.07 29.9 85.9 16 2.1 35.8
11:50 1020 30.12 849 25.07 30.2 86.4 15 0.9 33.6
11:55 1020 30.12 849 25.07 30.1 86.1 15 0.5 33
12:00 1020 30.12 849 25.07 29.8 85.6 17 2.8 37.1
12:05 1020 30.12 849 25.07 29.7 85.5 18 3.3 38
12:10 1020 30.12 849 25.07 30.2 86.3 18 3.4 38.2
12:15 1020 30.12 849 25.07 29.3 84.7 18 3 37.4
12:20 1020 30.12 849 25.07 28.5 83.2 19 3.2 37.8
12:25 1020 30.12 849 25.07 28.3 83 18 2.4 36.3
12:30 1020 30.12 849 25.07 29 84.2 18 2.4 36.3
12:35 1019 30.09 849 25.07 29.5 85.1 16 1.3 34.3
12:40 1019 30.09 849 25.07 30.1 86.1 15 0.9 33.7
12:45 1019 30.09 849 25.07 30.2 86.3 15 1.4 34.5
12:50 1019 30.09 849 25.07 29.5 85.1 17 1.9 35.3
12:55 1019 30.09 849 25.07 29.2 84.5 16 0.7 33.3
13:00 1019 30.09 849 25.07 29.3 84.7 17 2.1 35.7
13:05 1019 30.09 848 25.04 29.8 85.7 16 1.4 34.5
13:10 1019 30.09 848 25.04 30.2 86.4 15 0.9 33.7
13:15 1019 30.09 848 25.04 30.1 86.1 15 1 33.9
13:20 1019 30.09 848 25.04 30.4 86.7 16 1.8 35.2
13:25 1019 30.09 848 25.04 31 87.7 16 2.2 36
13:30 1019 30.09 848 25.04 31.2 88.1 15 2.2 35.9
13:35 1019 30.09 848 25.04 31.3 88.4 15 2.1 35.9
13:40 1019 30.09 848 25.04 30.5 87 15 1.7 35
13:45 1019 30.09 848 25.04 30 85.9 15 1.2 34.1
13:50 1019 30.09 848 25.04 29.1 84.4 17 2.3 36.1
13:55 1019 30.09 848 25.04 28.3 82.9 21 4 39.2
14:00 1020 30.12 849 25.07 26.8 80.2 26 5.9 42.5
14:05 1020 30.12 849 25.07 26.1 79 26 5.2 41.3
14:10 1020 30.12 849 25.07 25.9 78.7 26 5.3 41.5
14:15 1020 30.12 849 25.07 26.9 80.4 24 4.6 40.4
14:20 1020 30.12 849 25.07 27.8 82 23 5.1 41.1
14:25 1020 30.12 849 25.07 27.9 82.2 20 3.5 38.3
14:30 1019 30.09 849 25.07 27.8 82 21 3.6 38.4
14:35 1019 30.09 849 25.07 27.9 82.2 22 4.5 40.2
14:40 1019 30.09 848 25.04 28.4 83.1 21 4.2 39.5
14:45 1019 30.09 848 25.04 28.4 83.1 21 4.4 39.9
14:50 1019 30.09 848 25.04 27.5 81.4 21 3.5 38.2
14:55 1019 30.09 848 25.04 27.8 82 21 3.8 38.8
15:00 1019 30.09 848 25.04 28.5 83.2 19 3.1 37.7
15:05 1019 30.09 848 25.04 28.4 83.2 22 4.7 40.4
15:10 1019 30.09 848 25.04 27.4 81.4 22 4.2 39.5
15:15 1019 30.09 848 25.04 27.8 82 21 3.9 39
15:20 1019 30.09 848 25.04 28.5 83.3 21 4.2 39.6
15:25 1019 30.09 848 25.04 27.3 81.1 22 4.2 39.6
15:30 1019 30.09 848 25.04 27.1 80.7 22 3.6 38.4
15:35 1019 30.09 848 25.04 27.3 81.1 20 2.7 36.9
15:40 1019 30.09 848 25.04 27.4 81.3 20 2.6 36.7
15:45 1019 30.09 849 25.07 27.3 81.1 21 3.4 38.1
15:50 1019 30.09 849 25.07 26.7 80.1 23 4.4 39.9
15:55 1020 30.12 849 25.07 25.6 78 32 7.8 46.1
16:00 1020 30.12 849 25.07 23 73.4 31 5.4 41.7
16:05 1020 30.12 849 25.07 23 73.4 32 5.4 41.7
16:10 1020 30.12 849 25.07 23.5 74.3 31 5.5 42
16:15 1019 30.09 849 25.07 23.6 74.5 29 4.9 40.8
16:20 1019 30.09 848 25.04 24.3 75.8 28 4.9 40.8
16:25 1019 30.09 848 25.04 24.4 76 27 4.5 40.1
16:30 1019 30.09 848 25.04 24.6 76.4 27 4.4 40
16:35 1019 30.09 848 25.04 24.8 76.6 29 5.8 42.4
16:40 1019 30.09 848 25.04 24.3 75.7 32 6.6 43.8
16:45 1019 30.09 848 25.04 24.7 76.5 32 7 44.6
16:50 1019 30.09 848 25.04 25.3 77.6 30 6.8 44.3
16:55 1019 30.09 848 25.04 25.3 77.5 29 6.3 43.3
17:00 1019 30.09 848 25.04 25 77 29 6.1 43
17:05 1019 30.09 848 25.04 25 76.9 28 5.3 41.5
17:10 1019 30.09 848 25.04 25 77 29 5.9 42.5
17:15 1019 30.09 848 25.04 25.1 77.1 28 5.7 42.2
17:20 1019 30.09 848 25.04 24.7 76.5 29 5.8 42.5
17:25 1019 30.09 848 25.04 24.7 76.4 29 5.5 41.9
17:30 1019 30.09 848 25.04 24.7 76.5 28 5.1 41.2
17:35 1019 30.09 848 25.04 24.6 76.3 28 5.4 41.6
17:40 1019 30.09 848 25.04 24.5 76.1 29 5.7 42.2
17:45 1019 30.09 848 25.04 24.3 75.8 29 5.3 41.5
17:50 1018 30.06 848 25.04 24.3 75.7 28 4.9 40.9
17:55 1018 30.06 848 25.04 24.4 76 28 5 41
18:00 1018 30.06 848 25.04 24.4 75.8 28 4.7 40.4
18:05 1018 30.06 848 25.04 24.4 75.9 27 4.6 40.3
18:10 1018 30.06 847 25.01 24.5 76.1 29 5.6 42
18:15 1018 30.06 847 25.01 24.5 76.1 29 5.4 41.7
18:20 1018 30.06 847 25.01 24.4 75.9 29 5.3 41.5
18:25 1018 30.06 847 25.01 24.3 75.8 28 5.1 41.1
18:30 1018 30.06 847 25.01 24.3 75.8 28 4.9 40.8
18:35 1018 30.06 847 25.01 24.4 75.8 28 4.8 40.7
18:40 1018 30.06 847 25.01 24.2 75.6 28 5 41
18:45 1018 30.06 847 25.01 24.1 75.4 28 4.8 40.7
18:50 1018 30.06 847 25.01 24.2 75.5 28 4.7 40.5
18:55 1018 30.06 847 25.01 24.1 75.4 28 4.9 40.8
19:00 1018 30.06 848 25.04 24 75.2 29 4.9 40.9
19:05 1018 30.06 848 25.04 24 75.2 29 5 41.1
19:10 1018 30.06 848 25.04 23.7 74.6 30 5.2 41.3
19:15 1018 30.06 848 25.04 23.3 74 30 5.1 41.1
19:20 1018 30.06 848 25.04 23.1 73.6 31 5.2 41.4
19:25 1018 30.06 848 25.04 22.9 73.3 31 5.3 41.5
19:30 1018 30.06 848 25.04 22.6 72.6 32 5.1 41.2
19:35 1019 30.09 848 25.04 22.5 72.6 31 4.9 40.8
19:40 1019 30.09 848 25.04 22.7 72.9 31 4.8 40.6
19:45 1019 30.09 848 25.04 22.8 73.1 31 4.8 40.7
19:50 1019 30.09 848 25.04 22.9 73.2 30 4.8 40.6
19:55 1019 30.09 848 25.04 22.9 73.2 30 4.8 40.7
20:00 1019 30.09 848 25.04 22.9 73.2 30 4.8 40.6
20:05 1019 30.09 848 25.04 22.9 73.1 31 5.1 41.2
20:10 1019 30.09 848 25.04 22.7 72.9 32 5.2 41.3
20:15 1019 30.09 848 25.04 22.5 72.4 33 5.4 41.7
20:20 1019 30.09 848 25.04 22.4 72.3 33 5.3 41.6
20:25 1019 30.09 848 25.04 22.5 72.5 33 5.4 41.8
20:30 1019 30.09 848 25.04 22.7 72.8 33 5.9 42.6
20:35 1019 30.09 848 25.04 22.2 71.9 35 6.1 43
20:40 1019 30.09 848 25.04 22.2 72 35 6.2 43.2
20:45 1019 30.09 848 25.04 21.7 71.1 35 5.9 42.6
20:50 1019 30.09 848 25.04 22 71.6 33 5.1 41.3
20:55 1018 30.06 848 25.04 22.7 72.8 31 4.7 40.5
21:00 1018 30.06 848 25.04 23.8 74.8 26 3.3 38
21:05 1018 30.06 848 25.04 24.1 75.3 27 4.3 39.8
21:10 1019 30.09 848 25.04 23.7 74.6 29 4.8 40.7
21:15 1019 30.09 848 25.04 23 73.4 33 6.2 43.2
21:20 1019 30.09 848 25.04 21.5 70.7 41 8 46.3
21:25 1019 30.09 848 25.04 20.6 69.2 41 7.2 45
21:30 1019 30.09 848 25.04 20.7 69.3 40 6.9 44.4
21:35 1019 30.09 848 25.04 21 69.7 38 6.4 43.4
21:40 1019 30.09 848 25.04 21.4 70.4 36 5.9 42.5
21:45 1019 30.09 848 25.04 21.6 70.9 36 6.1 43.1
21:50 1019 30.09 848 25.04 21.3 70.4 40 7.2 45
21:55 1019 30.09 848 25.04 20.5 68.9 41 7.1 44.7
22:00 1019 30.09 848 25.04 20.5 68.8 41 6.8 44.3
22:05 1019 30.09 848 25.04 20.3 68.5 43 7.4 45.4
22:10 1019 30.09 848 25.04 19.7 67.4 46 7.8 46
22:15 1019 30.09 848 25.04 19.5 67.2 44 7.1 44.8
22:20 1019 30.09 848 25.04 19.6 67.3 44 7.1 44.8
22:25 1019 30.09 848 25.04 19.6 67.2 45 7.6 45.7
22:30 1019 30.09 848 25.04 19.3 66.8 47 7.9 46.2
22:35 1019 30.09 848 25.04 19.2 66.5 48 8 46.3
22:40 1019 30.09 848 25.04 19.6 67.2 46 7.8 46
22:45 1019 30.09 848 25.04 19.8 67.6 46 8.1 46.6
22:50 1019 30.09 848 25.04 19.9 67.8 45 7.8 46.1
22:55 1019 30.09 848 25.04 19.7 67.4 48 8.5 47.4
23:00 1019 30.09 848 25.04 19.4 66.9 46 7.7 45.8
23:05 1019 30.09 848 25.04 19.2 66.6 49 8.5 47.3
23:10 1019 30.09 848 25.04 18.8 65.9 50 8.4 47.2
23:15 1019 30.09 848 25.04 18.7 65.6 50 8.1 46.7
23:20 1019 30.09 848 25.04 18.6 65.5 50 8.1 46.7
23:25 1019 30.09 848 25.04 18.8 65.9 48 7.6 45.8
23:30 1019 30.09 848 25.04 19 66.2 48 7.8 46.1
23:35 1019 30.09 848 25.04 19.1 66.3 47 7.7 45.9
23:40 1019 30.09 848 25.04 19.3 66.7 47 7.7 45.8
23:45 1019 30.09 848 25.04 19.3 66.8 46 7.5 45.6
23:50 1019 30.09 848 25.04 19.4 67 47 8 46.4
23:55 1019 30.09 848 25.04 19.6 67.2 45 7.5 45.4
24:00 1019 30.09 848 25.04 19.5 67.1 46 7.7 45.8